Spring Valley, Wisconsin
Current Conditions -  °F | °C
As of 4:55 PM on Tuesday 21 Oct 2014 (Local Time) from KLUM Reporting Station
Clear Clear  
Wind Chill: 55°   Ceiling: Unl
Heat Index: 55°   Visibility: 10mi
Dew Point: 37°   Wind: 9mph
Humidity: 49%   Direction: 80°E
Pressure: 30.18"   Gusts: NA
Location:  44.85°N, 92.24°W
Report Text: KLUM 212155Z AUTO 08008KT 10SM CLR 13/03 A3018 RMK AO2 T01300026
Loading
Personal Weather Stations






























Interactive Weather Map
Tropical Storm Tracking
New forecast layout! Learn more

10-Day Weather Forecast

Advertisements
Track Severe Weather on mobile